Chaska, MN (55318)

10:35 PM CST on December 03, 2016 (GMT -0600)
| | Change Station

Elev -9999 ft 0.00 °N, 0.00 °E | Updated

Snow
Snow
35 °F
Feels Like 28 °F
N
10
Wind Variable Wind from SSE
Gusts 17 mph

Today
High -- | Low -- °F
--% Chance of Precip.
Yesterday
High -- | Low -- °F
Precip. -- in
Pressure 30.15 in
Visibility 6.0 miles
Clouds Overcast 1300 ft
Windchill 28 °F
Dew Point 30 °F
Humidity 83%
Rainfall --
Snow Depth Not available.
7:34 AM 4:34 PM
Waxing Crescent, 19% visible
METAR KFCM 040353Z AUTO 14010KT 6SM -SN OVC013 01/M03 A3011 RMK AO2 SNB47 SLP209 P0000 T00061033
Pressure 30.15 in
Visibility 6.0 miles
Clouds Overcast 1300 ft
Windchill 28 °F
Dew Point 30 °F
Humidity 83%
Rainfall --
Snow Depth Not available.
7:34 AM 4:34 PM
Waxing Crescent, 19% visible
METAR KFCM 040353Z AUTO 14010KT 6SM -SN OVC013 01/M03 A3011 RMK AO2 SNB47 SLP209 P0000 T00061033

10-Day Weather Forecast

Almanac

Astronomy

Dec. 03, 2016 Rise Set
Actual Time
Civil Twilight
Nautical Twilight
Astronomical Twilight
Moon
Length of Visible Light
Length of Day
Tomorrow will be .
, % of the Moon is Illuminated

Today's Extremes

State Highs State Lows

Community

WunderPhotos

Upload Photos

1,955,581 photos uploaded!

WunderBlog® & News

Nearby

Air Quality

  Air Quality AQ Index Pollutant
Not available.

Snow Depth

Station Depth Elevation

Earthquake Activity

City Distance Mag. Time & Date
Minimum magnitude displayed is 2.5.

Coastal Water Temperatures

Place Temperature

Stations

Nearby Weather Stations

Station Location Temp. Windchill Dew Point Humidity Wind Precip. Elev Updated Type
                   

Watches & Warnings

There are currently no watches in effect.